Time;durP1;ratioP1;P1;durP2;ratioP2;P2;SDS_P1;SDS_P2;PMS_P1;PMS_P2;Temp;Humidity;BMP_temperature;BMP_pressure;BME280_temperature;BME280_humidity;BME280_pressure;Samples;Min_cycle;Max_cycle;Signal;HPM_P1;HPM_P2
2023/09/12 00:00:05;;;;;;;2.63;2.08;;;20.70;73.80;;;;;;5012027;28;20029;-66
2023/09/12 00:02:38;;;;;;;2.00;1.52;;;20.60;73.70;;;;;;5016703;28;20041;-66
2023/09/12 00:05:06;;;;;;;5.60;1.98;;;20.60;73.80;;;;;;5010334;28;20033;-66
2023/09/12 00:07:32;;;;;;;5.53;2.63;;;20.60;73.80;;;;;;5011804;28;20113;-66
2023/09/12 00:09:59;;;;;;;3.20;2.13;;;20.50;73.70;;;;;;5008097;28;20030;-67
2023/09/12 00:12:25;;;;;;;4.45;2.42;;;20.60;74.00;;;;;;5019557;28;20120;-66
2023/09/12 00:14:51;;;;;;;2.15;1.95;;;20.50;73.90;;;;;;5007173;28;20169;-66
2023/09/12 00:17:17;;;;;;;2.45;1.80;;;20.50;74.00;;;;;;5015320;28;20126;-66
2023/09/12 00:19:44;;;;;;;3.40;2.10;;;20.50;74.00;;;;;;5010229;28;20527;-66
2023/09/12 00:22:09;;;;;;;2.78;1.90;;;20.50;74.10;;;;;;5008815;28;20030;-67
2023/09/12 00:24:37;;;;;;;2.22;1.83;;;20.50;74.10;;;;;;5011076;28;20026;-66
2023/09/12 00:27:05;;;;;;;3.97;2.00;;;20.50;74.20;;;;;;5013506;28;20044;-66
2023/09/12 00:29:32;;;;;;;2.13;1.73;;;20.50;74.20;;;;;;5010810;28;20199;-67
2023/09/12 00:31:58;;;;;;;3.45;2.10;;;20.50;74.30;;;;;;5014125;28;20041;-66
2023/09/12 00:34:24;;;;;;;3.25;2.03;;;20.50;74.30;;;;;;5012411;28;20088;-66
2023/09/12 00:36:51;;;;;;;2.30;1.90;;;20.50;74.40;;;;;;5006280;28;20076;-66
2023/09/12 00:39:17;;;;;;;2.97;2.10;;;20.40;74.20;;;;;;5013617;28;20502;-67
2023/09/12 00:41:44;;;;;;;2.17;1.88;;;20.50;74.40;;;;;;5007980;28;20521;-68
2023/09/12 00:44:11;;;;;;;3.35;2.20;;;20.50;74.50;;;;;;5013146;28;20033;-68
2023/09/12 00:46:38;;;;;;;4.40;2.33;;;20.40;74.40;;;;;;5012532;28;20033;-68
2023/09/12 00:49:07;;;;;;;2.28;1.60;;;20.40;74.40;;;;;;5012857;28;20041;-68
2023/09/12 00:51:35;;;;;;;4.57;2.28;;;20.40;74.50;;;;;;5009800;28;20125;-68
2023/09/12 00:54:01;;;;;;;3.05;2.10;;;20.40;74.50;;;;;;5012716;28;20022;-67
2023/09/12 00:56:27;;;;;;;2.80;2.20;;;20.40;74.60;;;;;;5012598;28;20029;-67
2023/09/12 00:58:54;;;;;;;3.97;2.10;;;20.40;74.60;;;;;;5015206;28;20036;-67
2023/09/12 01:01:20;;;;;;;2.83;2.25;;;20.40;74.70;;;;;;5005496;28;20026;-67
2023/09/12 01:03:47;;;;;;;2.83;2.08;;;20.40;74.70;;;;;;5011745;28;20060;-67
2023/09/12 01:06:14;;;;;;;3.10;2.40;;;20.30;74.60;;;;;;5007651;28;20044;-68
2023/09/12 01:08:42;;;;;;;3.45;2.17;;;20.30;74.60;;;;;;5002770;28;20121;-68
2023/09/12 01:11:09;;;;;;;3.55;2.97;;;20.30;74.60;;;;;;5014610;28;20029;-67
2023/09/12 01:13:37;;;;;;;2.53;2.03;;;20.30;74.70;;;;;;5012184;28;20035;-67
2023/09/12 01:16:03;;;;;;;2.40;2.13;;;20.30;74.70;;;;;;5007496;28;20044;-68
2023/09/12 01:18:30;;;;;;;2.63;2.10;;;20.30;74.70;;;;;;5002115;28;20541;-67
2023/09/12 01:20:59;;;;;;;3.40;2.00;;;20.30;74.80;;;;;;5018500;28;20025;-67
2023/09/12 01:24:01;;;;;;;2.85;2.17;;;20.30;74.80;;;;;;5011389;28;20065;-67
2023/09/12 01:27:16;;;;;;;2.53;2.00;;;20.30;75.00;;;;;;5007334;28;20238;-66
2023/09/12 01:29:45;;;;;;;2.83;1.80;;;20.30;75.00;;;;;;5012730;28;20037;-67
2023/09/12 01:32:13;;;;;;;4.97;2.38;;;20.30;74.90;;;;;;5012085;28;20144;-66
2023/09/12 01:34:40;;;;;;;4.32;2.22;;;20.30;75.00;;;;;;5005728;28;20080;-66
2023/09/12 01:37:06;;;;;;;3.83;2.08;;;20.30;75.00;;;;;;5012362;28;20852;-66
2023/09/12 01:39:32;;;;;;;3.58;2.03;;;20.30;75.10;;;;;;5007935;28;20050;-67
2023/09/12 01:42:00;;;;;;;3.72;1.77;;;20.30;75.10;;;;;;5009872;28;20548;-66
2023/09/12 01:44:28;;;;;;;4.45;2.30;;;20.30;75.20;;;;;;5011226;28;20033;-66
2023/09/12 01:46:57;;;;;;;3.50;1.95;;;20.30;75.20;;;;;;5011297;28;20413;-66
2023/09/12 01:49:26;;;;;;;3.80;1.85;;;20.30;75.30;;;;;;5017963;28;20084;-66
2023/09/12 01:51:53;;;;;;;3.35;1.85;;;20.30;75.30;;;;;;5019383;28;20053;-66
2023/09/12 01:54:21;;;;;;;3.78;2.03;;;20.30;75.30;;;;;;5015987;28;20064;-66
2023/09/12 01:56:48;;;;;;;2.75;1.88;;;20.30;75.30;;;;;;4997026;28;20045;-66
2023/09/12 01:59:14;;;;;;;1.92;1.63;;;20.30;75.40;;;;;;5013388;28;20087;-67
2023/09/12 02:01:41;;;;;;;2.72;1.80;;;20.30;75.40;;;;;;5017467;28;20454;-67
2023/09/12 02:04:08;;;;;;;2.97;1.50;;;20.30;75.40;;;;;;5017252;28;20095;-66
2023/09/12 02:06:35;;;;;;;2.83;1.67;;;20.20;75.30;;;;;;5017800;28;20041;-67
2023/09/12 02:09:02;;;;;;;3.00;1.60;;;20.20;75.30;;;;;;5019476;28;20041;-66
2023/09/12 02:11:28;;;;;;;2.25;2.03;;;20.20;75.90;;;;;;5018960;28;20029;-67
2023/09/12 02:13:54;;;;;;;3.90;1.88;;;20.20;75.40;;;;;;5018361;28;20053;-67
2023/09/12 02:16:20;;;;;;;4.75;2.13;;;20.20;75.50;;;;;;5020098;28;20562;-67
2023/09/12 02:18:45;;;;;;;3.03;2.00;;;20.10;75.40;;;;;;5014063;28;20041;-67
2023/09/12 02:21:11;;;;;;;2.70;1.80;;;20.10;75.40;;;;;;5010989;28;20980;-67
2023/09/12 02:23:37;;;;;;;3.00;2.05;;;20.10;75.50;;;;;;5007681;28;20048;-67
2023/09/12 02:26:03;;;;;;;3.60;1.95;;;20.10;75.50;;;;;;5014983;28;20033;-67
2023/09/12 02:28:29;;;;;;;3.70;1.55;;;20.10;75.60;;;;;;5015317;28;20480;-67
2023/09/12 02:30:56;;;;;;;2.55;2.15;;;20.10;75.70;;;;;;5016774;28;20435;-67
2023/09/12 02:33:22;;;;;;;3.42;1.50;;;20.10;75.70;;;;;;5014278;28;20040;-67
2023/09/12 02:35:47;;;;;;;3.67;1.88;;;20.00;75.60;;;;;;5015818;28;20282;-67
2023/09/12 02:38:14;;;;;;;2.72;1.65;;;20.10;75.80;;;;;;5017957;28;20044;-68
2023/09/12 02:40:39;;;;;;;2.05;1.60;;;20.00;75.60;;;;;;5020016;28;20036;-67
2023/09/12 02:43:05;;;;;;;4.47;1.58;;;20.00;75.60;;;;;;5008181;28;20030;-66
2023/09/12 02:45:31;;;;;;;4.00;1.65;;;20.00;75.70;;;;;;5016826;28;20076;-67
2023/09/12 02:47:59;;;;;;;1.50;1.40;;;20.00;75.70;;;;;;5016432;28;20034;-66
2023/09/12 02:50:29;;;;;;;1.70;1.60;;;20.00;75.70;;;;;;5013751;28;20033;-66
2023/09/12 02:52:54;;;;;;;5.07;2.38;;;20.00;75.80;;;;;;5017228;28;20048;-65
2023/09/12 02:55:20;;;;;;;2.83;1.67;;;19.90;76.20;;;;;;5010893;28;20390;-66
2023/09/12 02:57:46;;;;;;;2.28;1.63;;;19.90;75.70;;;;;;5021182;28;21288;-66
2023/09/12 03:00:13;;;;;;;1.40;1.20;;;19.90;75.70;;;;;;5014851;28;20122;-67
2023/09/12 03:02:39;;;;;;;4.30;2.13;;;19.90;75.70;;;;;;5019909;28;20514;-67
2023/09/12 03:05:06;;;;;;;5.03;2.05;;;19.90;75.80;;;;;;5015901;28;20034;-66
2023/09/12 03:07:32;;;;;;;1.70;1.50;;;19.90;75.80;;;;;;5011128;28;20037;-66
2023/09/12 03:09:58;;;;;;;2.05;1.50;;;19.90;75.90;;;;;;5020836;28;20449;-67
2023/09/12 03:12:24;;;;;;;3.25;1.50;;;19.90;75.90;;;;;;5020393;28;20077;-66
2023/09/12 03:14:50;;;;;;;3.30;2.28;;;19.90;75.90;;;;;;5012084;28;20065;-66
2023/09/12 03:17:16;;;;;;;2.60;1.83;;;19.90;76.00;;;;;;5011358;28;20033;-66
2023/09/12 03:19:42;;;;;;;2.63;2.25;;;19.90;76.00;;;;;;5013613;28;20631;-67
2023/09/12 03:22:08;;;;;;;4.25;1.80;;;19.90;76.00;;;;;;5014641;28;20126;-67
2023/09/12 03:24:34;;;;;;;3.35;2.13;;;19.90;76.00;;;;;;5014804;28;20057;-67
2023/09/12 03:27:07;;;;;;;2.73;2.20;;;19.90;76.20;;;;;;5019333;28;20069;-67
2023/09/12 03:29:34;;;;;;;2.28;1.98;;;19.90;76.20;;;;;;5012339;28;20121;-67
2023/09/12 03:32:00;;;;;;;1.88;1.73;;;19.90;76.20;;;;;;5011042;28;20034;-67
2023/09/12 03:34:27;;;;;;;4.22;1.98;;;19.90;76.30;;;;;;5019599;28;20037;-67
2023/09/12 03:36:54;;;;;;;2.20;1.77;;;19.90;76.30;;;;;;5019505;28;20041;-67
2023/09/12 03:39:23;;;;;;;4.05;1.92;;;19.90;76.30;;;;;;5017163;28;20033;-67
2023/09/12 03:41:50;;;;;;;2.28;2.08;;;19.90;76.30;;;;;;5006587;28;20636;-67
2023/09/12 03:44:16;;;;;;;2.78;2.08;;;19.90;76.40;;;;;;5014702;28;20120;-68
2023/09/12 03:46:42;;;;;;;3.45;1.90;;;19.90;76.40;;;;;;5015128;28;20513;-67
2023/09/12 03:49:08;;;;;;;2.03;1.83;;;19.90;76.40;;;;;;5020734;28;20041;-68
2023/09/12 03:51:35;;;;;;;2.05;1.70;;;19.90;76.40;;;;;;5011575;28;20061;-67
2023/09/12 03:54:01;;;;;;;2.70;2.10;;;19.90;77.00;;;;;;5005752;28;20026;-67
2023/09/12 03:56:27;;;;;;;2.33;1.88;;;19.90;76.40;;;;;;5007290;28;20509;-68
2023/09/12 03:58:56;;;;;;;2.97;1.63;;;19.90;76.40;;;;;;5009846;28;20072;-67
2023/09/12 04:01:22;;;;;;;3.80;1.80;;;19.90;76.50;;;;;;5011641;28;20030;-67
2023/09/12 04:03:48;;;;;;;3.65;2.28;;;19.90;76.50;;;;;;5014609;28;20041;-67
2023/09/12 04:06:14;;;;;;;3.80;2.10;;;19.90;76.60;;;;;;5010987;28;20042;-67
2023/09/12 04:08:40;;;;;;;3.15;2.63;;;19.90;76.60;;;;;;5019389;28;20128;-67
2023/09/12 04:11:08;;;;;;;2.47;2.03;;;19.90;76.60;;;;;;5014882;28;20034;-67
2023/09/12 04:13:34;;;;;;;4.55;2.65;;;19.90;76.60;;;;;;5016563;28;20021;-67
2023/09/12 04:16:00;;;;;;;3.97;2.30;;;19.90;76.60;;;;;;5007322;28;20478;-67
2023/09/12 04:18:26;;;;;;;3.53;2.38;;;19.90;76.70;;;;;;5013238;28;20021;-67
2023/09/12 04:20:55;;;;;;;5.07;2.63;;;19.90;76.70;;;;;;5012465;28;20448;-68
2023/09/12 04:23:21;;;;;;;3.45;3.03;;;19.90;76.70;;;;;;5006689;28;20087;-67
2023/09/12 04:25:47;;;;;;;5.07;3.13;;;19.90;76.70;;;;;;5010605;28;20050;-67
2023/09/12 04:28:14;;;;;;;3.22;2.92;;;19.90;76.80;;;;;;5014898;28;20497;-67
2023/09/12 04:30:41;;;;;;;3.28;2.78;;;19.90;76.80;;;;;;5009269;28;20030;-67
2023/09/12 04:33:07;;;;;;;4.43;2.95;;;19.90;76.80;;;;;;5015353;28;20037;-67
2023/09/12 04:35:34;;;;;;;4.40;2.83;;;19.90;76.90;;;;;;5008943;28;20029;-67
2023/09/12 04:38:00;;;;;;;3.63;3.13;;;19.90;76.90;;;;;;5013354;28;20119;-67
2023/09/12 04:40:26;;;;;;;3.13;2.83;;;19.90;76.90;;;;;;5010753;28;20091;-67
2023/09/12 04:42:53;;;;;;;5.90;3.15;;;19.90;76.90;;;;;;5007119;28;20116;-67
2023/09/12 04:45:19;;;;;;;3.55;3.25;;;19.90;77.00;;;;;;5015168;28;20049;-67
2023/09/12 04:47:45;;;;;;;4.15;2.83;;;19.90;77.00;;;;;;5009272;28;20501;-66
2023/09/12 04:50:11;;;;;;;3.38;3.05;;;19.90;77.00;;;;;;5021148;28;20891;-67
2023/09/12 04:52:38;;;;;;;5.35;2.80;;;19.90;77.00;;;;;;5004984;28;20050;-66
2023/09/12 04:55:05;;;;;;;3.28;2.58;;;19.90;77.00;;;;;;5010406;28;20029;-66
2023/09/12 04:57:31;;;;;;;3.08;2.70;;;19.90;77.00;;;;;;5036699;28;20499;-67
2023/09/12 05:00:00;;;;;;;2.75;2.35;;;19.90;77.00;;;;;;5021583;28;20030;-67
2023/09/12 05:02:26;;;;;;;5.70;3.22;;;19.90;77.10;;;;;;5016685;28;20060;-67
2023/09/12 05:04:52;;;;;;;5.15;3.13;;;19.90;77.00;;;;;;5016893;28;20493;-67
2023/09/12 05:07:22;;;;;;;4.22;2.78;;;19.90;77.10;;;;;;5016730;28;20037;-67
2023/09/12 05:09:48;;;;;;;4.07;2.50;;;19.90;77.10;;;;;;5020959;28;20136;-67
2023/09/12 05:12:14;;;;;;;3.45;2.45;;;19.90;77.10;;;;;;5018545;28;20088;-66
2023/09/12 05:14:41;;;;;;;3.63;3.00;;;19.90;77.10;;;;;;5016105;28;20059;-67
2023/09/12 05:17:07;;;;;;;3.58;2.85;;;19.90;77.10;;;;;;5016216;28;20034;-67
2023/09/12 05:19:33;;;;;;;6.07;3.13;;;19.90;77.20;;;;;;5016770;28;20037;-67
2023/09/12 05:22:00;;;;;;;4.43;3.67;;;19.90;77.20;;;;;;5019520;28;20137;-67
2023/09/12 05:24:27;;;;;;;3.92;3.28;;;19.90;77.20;;;;;;5013709;28;20026;-67
2023/09/12 05:26:58;;;;;;;3.28;2.90;;;19.90;77.30;;;;;;5014735;28;20421;-66
2023/09/12 05:29:24;;;;;;;3.92;2.85;;;19.90;77.30;;;;;;5017744;28;20024;-66
2023/09/12 05:31:51;;;;;;;4.55;2.95;;;19.90;77.30;;;;;;5011721;28;20049;-66
2023/09/12 05:34:18;;;;;;;4.05;3.65;;;19.90;77.30;;;;;;5013971;28;20025;-66
2023/09/12 05:36:45;;;;;;;4.03;3.00;;;19.90;77.40;;;;;;5010897;28;20041;-66
2023/09/12 05:39:14;;;;;;;4.60;3.40;;;19.90;77.50;;;;;;5014103;28;20028;-66
2023/09/12 05:41:40;;;;;;;4.38;2.95;;;19.90;77.50;;;;;;5014326;28;20029;-66
2023/09/12 05:44:06;;;;;;;4.47;3.60;;;19.80;77.30;;;;;;5017697;28;20049;-68
2023/09/12 05:46:32;;;;;;;3.88;3.55;;;19.80;77.40;;;;;;5012433;28;20045;-68
2023/09/12 05:48:58;;;;;;;4.47;3.50;;;19.80;77.40;;;;;;5010873;28;20033;-68
2023/09/12 05:51:24;;;;;;;4.88;3.35;;;19.80;77.40;;;;;;5013288;28;20201;-68
2023/09/12 05:53:51;;;;;;;4.13;3.33;;;19.80;77.50;;;;;;5012518;28;20072;-68
2023/09/12 05:56:17;;;;;;;3.40;2.90;;;19.80;77.50;;;;;;5013009;28;20124;-67
2023/09/12 05:58:43;;;;;;;3.70;2.80;;;19.80;77.50;;;;;;5012863;28;20160;-68
2023/09/12 06:01:09;;;;;;;3.25;2.95;;;19.80;77.50;;;;;;5013410;28;20117;-68
2023/09/12 06:03:35;;;;;;;4.38;3.55;;;19.80;77.50;;;;;;5010000;28;20064;-68
2023/09/12 06:06:02;;;;;;;3.88;3.50;;;19.80;77.60;;;;;;5008962;28;20134;-68
2023/09/12 06:08:31;;;;;;;3.60;3.30;;;19.90;77.70;;;;;;5011069;28;20048;-68
2023/09/12 06:10:57;;;;;;;4.50;3.47;;;19.90;77.80;;;;;;5016683;28;20030;-68
2023/09/12 06:13:24;;;;;;;5.45;3.30;;;19.90;77.80;;;;;;5012103;28;20516;-68
2023/09/12 06:15:50;;;;;;;4.75;3.45;;;19.90;77.80;;;;;;5009441;28;20033;-68
2023/09/12 06:18:16;;;;;;;4.45;3.42;;;19.90;78.00;;;;;;5005631;28;20033;-68
2023/09/12 06:20:42;;;;;;;5.38;3.30;;;19.90;78.10;;;;;;5010522;28;20040;-68
2023/09/12 06:23:08;;;;;;;5.20;3.90;;;19.90;78.10;;;;;;5011784;28;20025;-68
2023/09/12 06:25:35;;;;;;;4.78;3.60;;;19.90;78.10;;;;;;5013635;28;20118;-68
2023/09/12 06:28:01;;;;;;;4.10;3.53;;;19.90;78.10;;;;;;5011658;28;20619;-68
2023/09/12 06:30:27;;;;;;;3.85;3.50;;;19.90;78.10;;;;;;5012699;28;20438;-68
2023/09/12 06:32:53;;;;;;;5.05;3.92;;;20.00;78.30;;;;;;5014058;28;20435;-68
2023/09/12 06:35:22;;;;;;;6.95;4.18;;;20.00;78.30;;;;;;5012107;28;20026;-67
2023/09/12 06:37:48;;;;;;;4.78;4.25;;;20.00;78.40;;;;;;5012267;28;20041;-68
2023/09/12 06:40:14;;;;;;;6.90;5.10;;;20.00;78.60;;;;;;5011381;28;20145;-68
2023/09/12 06:42:41;;;;;;;7.05;4.07;;;20.00;78.80;;;;;;5013009;28;20238;-68
2023/09/12 06:45:13;;;;;;;5.70;4.28;;;20.00;79.00;;;;;;5003653;28;20037;-68
2023/09/12 06:47:39;;;;;;;6.07;4.45;;;20.00;79.10;;;;;;5007865;28;20490;-67
2023/09/12 06:50:06;;;;;;;5.75;4.30;;;20.10;79.40;;;;;;5007905;28;20067;-67
2023/09/12 06:52:32;;;;;;;4.57;4.18;;;20.10;79.50;;;;;;5008136;28;20287;-67
2023/09/12 06:54:59;;;;;;;8.68;5.00;;;20.10;79.50;;;;;;5008887;28;20057;-68
2023/09/12 06:57:25;;;;;;;6.90;4.38;;;20.20;80.30;;;;;;5009032;28;20045;-68
2023/09/12 06:59:51;;;;;;;5.97;4.35;;;20.20;79.80;;;;;;5013007;28;20904;-68
2023/09/12 07:02:18;;;;;;;6.88;4.43;;;20.20;79.80;;;;;;5012724;28;20045;-68
2023/09/12 07:04:44;;;;;;;6.43;4.60;;;20.30;79.90;;;;;;5008573;28;20541;-68
2023/09/12 07:07:10;;;;;;;5.53;4.10;;;20.30;79.90;;;;;;5010131;28;20322;-68
2023/09/12 07:09:36;;;;;;;8.82;5.43;;;20.40;80.00;;;;;;5009329;28;20068;-68
2023/09/12 07:12:05;;;;;;;5.28;4.35;;;20.40;80.00;;;;;;5011142;28;20037;-68
2023/09/12 07:14:31;;;;;;;7.00;4.82;;;20.40;79.90;;;;;;5009959;28;20079;-68
2023/09/12 07:16:58;;;;;;;5.43;4.93;;;20.50;79.90;;;;;;5009137;28;20025;-68
2023/09/12 07:19:25;;;;;;;5.93;4.75;;;20.60;80.10;;;;;;5006266;28;20034;-68
2023/09/12 07:21:57;;;;;;;7.70;4.73;;;20.70;80.20;;;;;;5013192;28;20060;-67
2023/09/12 07:24:27;;;;;;;7.03;4.75;;;20.70;80.00;;;;;;5014666;28;20033;-68
2023/09/12 07:26:54;;;;;;;4.82;4.18;;;20.70;79.90;;;;;;5013461;28;20041;-67
2023/09/12 07:29:20;;;;;;;11.18;5.55;;;20.80;79.90;;;;;;5009227;28;20033;-68
2023/09/12 07:31:47;;;;;;;7.13;5.13;;;20.80;79.80;;;;;;5008032;28;20358;-68
2023/09/12 07:34:14;;;;;;;7.75;5.75;;;20.90;79.90;;;;;;5004673;28;20029;-68
2023/09/12 07:36:40;;;;;;;5.30;4.78;;;20.90;79.70;;;;;;5007503;28;20350;-68
2023/09/12 07:39:13;;;;;;;5.75;4.55;;;21.00;79.70;;;;;;5076478;27;20465;-67
2023/09/12 07:41:39;;;;;;;6.70;5.28;;;21.00;79.60;;;;;;5074108;28;20036;-67
2023/09/12 07:44:07;;;;;;;15.60;5.22;;;21.10;79.70;;;;;;5075503;28;20032;-67
2023/09/12 07:46:38;;;;;;;8.23;4.60;;;21.10;79.60;;;;;;5069331;28;20479;-67
2023/09/12 07:49:09;;;;;;;5.60;4.60;;;21.10;79.50;;;;;;5076922;28;20044;-67
2023/09/12 07:51:35;;;;;;;5.93;4.32;;;21.10;79.30;;;;;;5074074;28;20493;-67
2023/09/12 07:54:02;;;;;;;9.10;4.78;;;21.20;79.40;;;;;;5073300;28;20083;-67
2023/09/12 07:56:29;;;;;;;7.78;4.55;;;21.30;79.50;;;;;;5080293;28;20028;-67
2023/09/12 07:58:58;;;;;;;6.18;4.65;;;21.30;79.30;;;;;;5071194;28;20132;-67
2023/09/12 08:01:24;;;;;;;5.60;3.58;;;21.40;79.40;;;;;;5074771;28;20101;-67
2023/09/12 08:03:50;;;;;;;5.55;4.25;;;21.40;79.30;;;;;;5074883;28;20063;-67
2023/09/12 08:06:17;;;;;;;4.47;4.03;;;21.40;79.10;;;;;;5074266;28;20492;-67
2023/09/12 08:08:44;;;;;;;4.70;3.65;;;21.50;79.10;;;;;;5068443;28;20067;-67
2023/09/12 08:11:10;;;;;;;5.60;3.92;;;21.50;79.00;;;;;;5075861;28;20028;-67
2023/09/12 08:13:37;;;;;;;4.32;3.67;;;21.50;78.90;;;;;;5069974;28;20971;-67
2023/09/12 08:16:03;;;;;;;5.07;3.47;;;21.50;78.80;;;;;;5072668;28;20185;-67
2023/09/12 08:18:30;;;;;;;3.70;3.40;;;21.60;78.90;;;;;;5074925;28;20067;-67
2023/09/12 08:20:57;;;;;;;3.92;3.40;;;21.60;78.70;;;;;;5072765;28;20033;-67
2023/09/12 08:23:24;;;;;;;3.55;3.00;;;21.70;78.70;;;;;;5076241;28;20038;-67
2023/09/12 08:25:50;;;;;;;5.15;3.33;;;21.80;78.70;;;;;;5071647;28;20072;-67
2023/09/12 08:28:16;;;;;;;6.20;3.83;;;21.80;78.50;;;;;;5074638;28;20111;-67
2023/09/12 08:30:46;;;;;;;6.88;2.80;;;21.90;78.40;;;;;;5069588;28;20333;-67
2023/09/12 08:33:12;;;;;;;3.95;3.28;;;22.00;78.30;;;;;;5075416;28;20511;-67
2023/09/12 08:35:39;;;;;;;3.80;3.35;;;22.00;78.10;;;;;;5069720;28;20028;-67
2023/09/12 08:38:06;;;;;;;4.05;2.75;;;22.10;78.10;;;;;;5069474;28;20068;-67
2023/09/12 08:40:33;;;;;;;4.82;3.28;;;22.20;78.00;;;;;;5071253;28;20585;-67
2023/09/12 08:43:00;;;;;;;4.25;3.55;;;22.20;77.80;;;;;;5074855;28;20032;-67
2023/09/12 08:45:27;;;;;;;4.32;3.00;;;22.30;77.80;;;;;;5067257;28;20028;-67
2023/09/12 08:47:55;;;;;;;4.00;2.88;;;22.30;77.60;;;;;;5078600;28;20534;-67
2023/09/12 08:50:23;;;;;;;4.97;2.45;;;22.40;77.70;;;;;;5063419;28;20134;-67
2023/09/12 08:52:50;;;;;;;4.82;2.90;;;22.30;77.40;;;;;;5066516;28;20074;-67
2023/09/12 08:55:17;;;;;;;3.40;2.65;;;22.40;77.60;;;;;;5054603;28;20029;-67
2023/09/12 08:57:48;;;;;;;3.28;2.75;;;22.30;77.40;;;;;;5054723;28;20048;-67
2023/09/12 09:00:15;;;;;;;5.13;2.97;;;22.30;77.40;;;;;;5061112;28;20067;-68
2023/09/12 09:02:43;;;;;;;3.28;2.97;;;22.20;77.20;;;;;;5056136;28;20082;-67
2023/09/12 09:05:11;;;;;;;4.95;2.90;;;22.20;77.30;;;;;;5058586;28;20110;-67
2023/09/12 09:07:39;;;;;;;1.98;1.80;;;22.10;77.20;;;;;;5062133;28;20381;-68
2023/09/12 09:10:08;;;;;;;2.88;2.13;;;22.10;77.20;;;;;;5060689;28;20047;-68
2023/09/12 09:12:39;;;;;;;3.00;2.15;;;22.00;77.10;;;;;;5065587;28;20044;-67
2023/09/12 09:15:22;;;;;;;3.50;2.20;;;22.00;77.20;;;;;;5055691;28;20032;-67
2023/09/12 09:17:50;;;;;;;1.60;1.50;;;22.00;77.20;;;;;;5062601;28;20041;-67
2023/09/12 09:20:30;;;;;;;2.10;1.70;;;22.00;77.20;;;;;;5055341;28;20063;-67
2023/09/12 09:23:01;;;;;;;1.25;1.13;;;22.00;77.20;;;;;;5054287;28;20495;-67
2023/09/12 09:25:28;;;;;;;2.50;1.45;;;22.00;77.10;;;;;;5058894;28;20040;-67
2023/09/12 09:27:54;;;;;;;1.80;1.30;;;22.00;77.10;;;;;;5057809;28;20101;-66
2023/09/12 09:30:45;;;;;;;1.60;1.40;;;22.10;77.10;;;;;;5050657;28;20112;-67
2023/09/12 09:33:12;;;;;;;1.35;1.20;;;22.20;77.10;;;;;;5045346;28;20284;-67
2023/09/12 09:35:42;;;;;;;1.38;1.00;;;22.20;76.90;;;;;;5055410;28;20503;-67
2023/09/12 09:38:08;;;;;;;1.25;1.00;;;22.30;76.90;;;;;;5047208;28;20056;-67
2023/09/12 09:40:36;;;;;;;1.80;1.10;;;22.30;76.70;;;;;;5047065;28;20297;-67
2023/09/12 09:43:04;;;;;;;1.52;0.95;;;22.40;76.70;;;;;;5052720;28;20224;-67
2023/09/12 09:45:34;;;;;;;1.45;0.90;;;22.50;76.70;;;;;;5048428;28;20113;-67
2023/09/12 09:48:09;;;;;;;1.90;0.85;;;22.60;76.60;;;;;;5060991;28;20520;-66
2023/09/12 09:50:37;;;;;;;2.58;1.00;;;22.70;76.50;;;;;;5054551;28;20257;-67
2023/09/12 09:53:05;;;;;;;1.48;0.90;;;22.90;76.50;;;;;;5058834;28;20476;-67
2023/09/12 09:55:32;;;;;;;1.75;1.00;;;23.10;76.40;;;;;;5051199;28;20063;-67
2023/09/12 09:57:58;;;;;;;3.35;1.05;;;23.20;76.70;;;;;;5045045;28;20037;-67
2023/09/12 10:00:25;;;;;;;1.00;0.80;;;23.50;76.20;;;;;;5056761;28;20042;-67
2023/09/12 10:02:52;;;;;;;1.08;0.88;;;23.70;76.10;;;;;;5050388;28;20077;-67
2023/09/12 10:05:21;;;;;;;1.40;0.77;;;23.80;75.80;;;;;;5064516;28;20106;-67
2023/09/12 10:07:50;;;;;;;1.30;0.93;;;24.10;75.80;;;;;;5057802;28;20068;-67
2023/09/12 10:10:18;;;;;;;1.00;0.70;;;24.30;75.70;;;;;;5054913;28;20032;-67
2023/09/12 10:12:56;;;;;;;1.42;1.00;;;24.50;75.60;;;;;;5055769;28;20024;-67
2023/09/12 10:15:26;;;;;;;0.93;0.90;;;24.70;75.40;;;;;;5054558;28;20075;-67
2023/09/12 10:18:02;;;;;;;1.65;0.82;;;24.90;75.10;;;;;;5062163;28;20036;-67
2023/09/12 10:20:48;;;;;;;1.08;0.98;;;25.10;74.90;;;;;;5060986;28;20615;-67
2023/09/12 10:23:23;;;;;;;1.45;0.73;;;25.20;74.60;;;;;;5058792;28;20090;-67
2023/09/12 10:25:50;;;;;;;1.40;0.70;;;25.40;74.40;;;;;;5060620;28;20080;-67
2023/09/12 10:28:18;;;;;;;0.90;0.70;;;25.40;74.10;;;;;;5059013;28;20059;-67
2023/09/12 10:30:46;;;;;;;1.92;0.93;;;25.50;73.90;;;;;;5062118;28;20128;-67
2023/09/12 10:33:15;;;;;;;1.33;0.98;;;25.60;73.70;;;;;;5058886;28;20059;-67
2023/09/12 10:35:44;;;;;;;1.63;1.05;;;25.70;73.50;;;;;;5056182;28;20035;-67
2023/09/12 10:38:14;;;;;;;2.17;0.90;;;25.90;73.30;;;;;;5055147;28;20195;-66
2023/09/12 10:40:41;;;;;;;0.68;0.68;;;26.00;73.00;;;;;;5054708;28;20033;-67
2023/09/12 10:43:10;;;;;;;3.25;1.33;;;26.10;72.70;;;;;;5057929;28;20036;-67
2023/09/12 10:45:37;;;;;;;2.17;0.65;;;26.20;72.40;;;;;;5052445;28;20131;-67
2023/09/12 10:48:04;;;;;;;2.70;0.50;;;26.30;72.10;;;;;;5058891;28;20037;-67
2023/09/12 10:50:30;;;;;;;1.75;0.82;;;26.40;71.90;;;;;;5057420;28;20064;-67
2023/09/12 10:53:09;;;;;;;1.33;0.57;;;26.30;71.80;;;;;;5058118;28;20031;-67
2023/09/12 10:55:38;;;;;;;1.35;0.70;;;26.30;71.70;;;;;;5044833;28;20539;-67
2023/09/12 10:58:07;;;;;;;0.75;0.70;;;26.20;71.90;;;;;;5054823;28;20079;-67
2023/09/12 11:00:34;;;;;;;4.72;0.80;;;26.10;71.80;;;;;;5055037;28;20028;-67
2023/09/12 11:03:29;;;;;;;1.48;0.73;;;26.20;71.80;;;;;;5055756;28;20031;-67
2023/09/12 11:05:56;;;;;;;2.15;0.88;;;26.20;71.40;;;;;;5060616;28;20123;-66
2023/09/12 11:08:23;;;;;;;1.48;0.80;;;26.30;71.40;;;;;;5055939;28;20036;-66
2023/09/12 11:11:20;;;;;;;1.55;1.05;;;26.50;71.20;;;;;;5058949;28;20094;-66
2023/09/12 11:14:02;;;;;;;1.17;0.70;;;26.70;70.70;;;;;;5039446;28;20133;-67
2023/09/12 11:16:29;;;;;;;2.33;0.60;;;26.90;70.50;;;;;;5055682;28;20032;-66
2023/09/12 11:19:14;;;;;;;2.08;0.60;;;27.00;70.10;;;;;;5064818;28;20071;-67
2023/09/12 11:21:42;;;;;;;1.25;0.80;;;27.20;69.60;;;;;;5051461;28;20047;-67
2023/09/12 11:24:09;;;;;;;1.13;0.40;;;27.30;69.40;;;;;;5059994;28;20036;-67
2023/09/12 11:26:51;;;;;;;1.35;0.50;;;27.50;68.90;;;;;;5055589;28;20047;-67
2023/09/12 11:29:17;;;;;;;2.60;1.80;;;27.50;68.50;;;;;;5059341;28;20044;-67
2023/09/12 11:31:54;;;;;;;2.33;0.68;;;27.60;68.30;;;;;;5051869;28;20051;-67
2023/09/12 11:34:20;;;;;;;0.63;0.40;;;27.60;67.90;;;;;;5054150;28;20094;-67
2023/09/12 11:36:50;;;;;;;1.48;0.73;;;27.60;68.00;;;;;;5053578;28;20036;-67
2023/09/12 11:39:24;;;;;;;0.95;0.75;;;27.60;67.90;;;;;;5058964;28;20067;-67
2023/09/12 11:41:51;;;;;;;1.90;0.60;;;27.70;67.60;;;;;;5065656;28;20021;-67
2023/09/12 11:44:20;;;;;;;2.15;0.93;;;27.80;67.60;;;;;;5047737;28;20040;-67
2023/09/12 11:46:50;;;;;;;1.05;0.50;;;27.80;67.30;;;;;;5050249;28;20052;-67
2023/09/12 11:49:17;;;;;;;0.82;0.40;;;27.90;67.00;;;;;;5066079;28;20039;-67
2023/09/12 11:51:50;;;;;;;1.10;0.60;;;28.10;66.90;;;;;;5057705;28;20039;-67
2023/09/12 11:54:25;;;;;;;2.38;0.73;;;28.20;66.60;;;;;;5049786;28;20044;-67
2023/09/12 11:57:01;;;;;;;3.17;1.10;;;28.30;66.30;;;;;;5058025;28;20044;-67
2023/09/12 11:59:31;;;;;;;2.53;0.80;;;28.30;66.20;;;;;;5058192;28;20654;-67
2023/09/12 12:01:58;;;;;;;1.33;0.50;;;28.50;66.00;;;;;;5052358;28;20112;-67
2023/09/12 12:04:25;;;;;;;2.17;0.82;;;28.60;65.80;;;;;;5064134;28;20460;-67
2023/09/12 12:06:52;;;;;;;5.88;1.67;;;28.60;65.40;;;;;;5055675;28;20051;-67
2023/09/12 12:09:21;;;;;;;3.00;0.98;;;28.80;65.20;;;;;;5061020;28;20040;-67
2023/09/12 12:11:47;;;;;;;2.22;0.68;;;28.80;64.90;;;;;;5053881;28;20067;-67
2023/09/12 12:14:15;;;;;;;2.72;0.77;;;28.90;64.60;;;;;;5051268;28;20036;-67
2023/09/12 12:16:43;;;;;;;1.40;0.60;;;28.90;64.30;;;;;;5056215;28;20089;-67
2023/09/12 12:19:11;;;;;;;1.42;0.52;;;29.10;64.20;;;;;;5079812;28;20052;-67
2023/09/12 12:21:42;;;;;;;1.42;0.60;;;29.10;63.90;;;;;;5054524;28;20493;-67
2023/09/12 12:24:14;;;;;;;2.90;0.60;;;29.20;63.70;;;;;;5056611;28;20036;-67
2023/09/12 12:26:42;;;;;;;2.40;1.08;;;29.20;63.50;;;;;;5052445;28;20295;-67
2023/09/12 12:29:10;;;;;;;1.05;0.52;;;29.20;63.40;;;;;;5056972;28;20078;-68
2023/09/12 12:31:40;;;;;;;0.73;0.43;;;29.10;63.30;;;;;;5056974;28;20500;-67
2023/09/12 12:34:06;;;;;;;0.55;0.55;;;29.20;63.20;;;;;;5059316;28;20385;-67
2023/09/12 12:36:33;;;;;;;1.73;0.80;;;29.10;63.00;;;;;;5052928;28;20036;-67
2023/09/12 12:38:59;;;;;;;5.88;1.05;;;29.10;63.00;;;;;;5059192;28;20055;-67
2023/09/12 12:41:28;;;;;;;1.15;0.60;;;29.10;62.70;;;;;;5057822;28;20055;-67
2023/09/12 12:44:00;;;;;;;2.10;0.60;;;29.20;62.60;;;;;;5063843;28;20032;-67
2023/09/12 12:46:28;;;;;;;2.55;0.70;;;29.20;62.40;;;;;;5056380;28;20150;-67
2023/09/12 12:48:55;;;;;;;1.50;0.50;;;29.30;62.20;;;;;;5068271;28;20033;-67
2023/09/12 12:51:25;;;;;;;2.80;0.60;;;29.40;62.00;;;;;;5058239;28;20040;-67